createdAt,value
2023-03-29T01:32:16.038Z,1.08
2023-03-29T01:34:02.301Z,0.95
2023-03-29T01:35:43.848Z,1.33
2023-03-29T01:37:24.848Z,1.05
2023-03-29T01:39:00.694Z,1.10
2023-03-29T01:40:34.381Z,1.20
2023-03-29T01:42:31.225Z,1.58
2023-03-29T01:44:11.235Z,1.60
2023-03-29T01:45:48.734Z,1.10
2023-03-29T01:47:31.494Z,1.40
2023-03-29T01:49:11.328Z,1.00
2023-03-29T01:50:50.385Z,1.27
2023-03-29T01:52:27.239Z,1.50
2023-03-29T01:54:05.913Z,0.95
2023-03-29T01:55:44.301Z,1.60
2023-03-29T01:57:20.097Z,1.20
2023-03-29T01:58:57.455Z,1.73
2023-03-29T02:00:31.564Z,1.20
2023-03-29T02:02:11.434Z,0.63
2023-03-29T02:03:51.021Z,0.60
2023-03-29T02:05:26.605Z,0.60
2023-03-29T02:07:08.953Z,1.15
2023-03-29T02:08:43.225Z,1.75
2023-03-29T02:10:18.683Z,1.20
2023-03-29T02:11:53.150Z,0.40
2023-03-29T02:13:27.416Z,1.67
2023-03-29T02:15:01.010Z,1.08
2023-03-29T02:16:40.511Z,2.00
2023-03-29T02:18:15.782Z,1.98
2023-03-29T02:19:56.187Z,0.80
2023-03-29T02:21:33.872Z,1.67
2023-03-29T02:23:16.045Z,1.73
2023-03-29T02:24:52.759Z,1.70
2023-03-29T02:26:29.249Z,1.52
2023-03-29T02:28:05.796Z,1.63
2023-03-29T02:29:39.424Z,16.02
2023-03-29T02:31:20.312Z,1.40
2023-03-29T02:32:59.694Z,1.70
2023-03-29T02:34:37.688Z,1.73
2023-03-29T02:36:19.692Z,1.63
2023-03-29T02:37:56.145Z,1.75
2023-03-29T02:39:32.336Z,1.30
2023-03-29T02:41:07.080Z,2.10
2023-03-29T02:42:40.821Z,2.10
2023-03-29T02:44:18.474Z,1.50
2023-03-29T02:45:53.580Z,2.10
2023-03-29T02:47:34.782Z,1.02
2023-03-29T02:49:08.473Z,2.10
2023-03-29T02:50:44.317Z,1.88
2023-03-29T02:52:24.073Z,1.23
2023-03-29T02:54:03.273Z,0.95
2023-03-29T02:55:37.038Z,2.45
2023-03-29T02:57:10.482Z,1.80
2023-03-29T02:58:46.510Z,1.88
2023-03-29T03:00:24.189Z,1.77
2023-03-29T03:02:00.171Z,1.42
2023-03-29T03:03:35.967Z,1.30
2023-03-29T03:05:10.061Z,1.63
2023-03-29T03:06:43.312Z,2.33
2023-03-29T03:08:18.787Z,1.55
2023-03-29T03:09:55.884Z,2.05
2023-03-29T03:11:29.352Z,1.40
2023-03-29T03:13:03.243Z,1.63
2023-03-29T03:14:38.137Z,1.95
2023-03-29T03:16:11.612Z,1.63
2023-03-29T03:17:46.788Z,3.00
2023-03-29T03:19:20.531Z,1.48
2023-03-29T03:20:59.249Z,1.85
2023-03-29T03:22:35.232Z,0.40
2023-03-29T03:24:10.492Z,3.33
2023-03-29T03:25:46.317Z,1.92
2023-03-29T03:27:21.419Z,3.80
2023-03-29T03:28:55.140Z,3.85
2023-03-29T03:30:46.770Z,2.38
2023-03-29T03:32:38.717Z,1.80
2023-03-29T03:34:30.544Z,1.38
2023-03-29T03:36:07.175Z,2.47
2023-03-29T03:37:42.997Z,2.15
2023-03-29T03:39:18.568Z,1.92
2023-03-29T03:40:55.346Z,0.68
2023-03-29T03:42:29.592Z,2.08
2023-03-29T03:44:02.540Z,6.75
2023-03-29T03:45:36.324Z,3.85
2023-03-29T03:47:22.333Z,4.55
2023-03-29T03:48:55.726Z,36.38
2023-03-29T03:50:35.328Z,2.40
2023-03-29T03:52:08.916Z,4.45
2023-03-29T03:53:42.442Z,7.53
2023-03-29T03:55:37.004Z,2.80
2023-03-29T03:57:17.785Z,3.05
2023-03-29T03:58:56.771Z,1.90
2023-03-29T04:00:30.004Z,2.47
2023-03-29T04:02:28.316Z,2.63
2023-03-29T04:04:02.218Z,1.35
2023-03-29T04:05:40.422Z,1.20
2023-03-29T04:07:14.462Z,1.65
2023-03-29T04:08:48.404Z,1.35
2023-03-29T04:10:31.828Z,2.42
2023-03-29T04:12:20.125Z,3.10
2023-03-29T04:13:53.710Z,2.90
2023-03-29T04:15:40.077Z,2.40
2023-03-29T04:17:18.470Z,2.28
2023-03-29T04:19:27.304Z,3.08
2023-03-29T04:21:01.086Z,2.47
2023-03-29T04:22:35.395Z,4.03
2023-03-29T04:24:09.735Z,3.88
2023-03-29T04:25:45.757Z,3.55
2023-03-29T04:27:58.989Z,2.47
2023-03-29T04:29:45.046Z,2.50
2023-03-29T04:31:27.958Z,2.13
2023-03-29T04:33:21.572Z,2.22
2023-03-29T04:35:01.740Z,1.70
2023-03-29T04:36:35.625Z,2.67
2023-03-29T04:38:11.515Z,1.95
2023-03-29T04:39:46.062Z,3.13
2023-03-29T04:41:20.072Z,2.92
2023-03-29T04:43:12.405Z,2.53
2023-03-29T04:44:54.843Z,0.63
2023-03-29T04:46:43.053Z,3.22
2023-03-29T04:48:37.754Z,2.38
2023-03-29T04:50:11.704Z,3.05
2023-03-29T04:51:48.974Z,3.08
2023-03-29T04:53:26.292Z,7.45
2023-03-29T04:54:59.913Z,4.03
2023-03-29T04:56:53.410Z,3.90
2023-03-29T04:58:48.492Z,3.38
2023-03-29T05:00:27.185Z,1.70
2023-03-29T05:02:20.886Z,4.00
2023-03-29T05:03:56.914Z,2.33
2023-03-29T05:05:35.647Z,2.50
2023-03-29T05:07:08.498Z,2.60
2023-03-29T05:10:49.243Z,2.22
2023-03-29T05:12:29.573Z,3.03
2023-03-29T05:14:07.434Z,2.85
2023-03-29T05:15:41.932Z,1.55
2023-03-29T05:17:15.918Z,2.45
2023-03-29T05:18:51.795Z,1.58
2023-03-29T05:20:26.069Z,2.42
2023-03-29T05:22:00.209Z,0.55
2023-03-29T05:23:34.386Z,1.92
2023-03-29T05:25:13.827Z,2.30
2023-03-29T05:26:51.761Z,2.72
2023-03-29T05:28:26.257Z,2.67
2023-03-29T05:30:01.511Z,2.33
2023-03-29T05:32:01.417Z,1.83
2023-03-29T05:33:36.698Z,0.95
2023-03-29T05:35:12.049Z,2.58
2023-03-29T05:36:46.547Z,2.08
2023-03-29T05:38:20.401Z,2.90
2023-03-29T05:39:54.931Z,2.45
2023-03-29T05:41:42.749Z,1.90
2023-03-29T05:43:37.553Z,1.92
2023-03-29T05:45:13.082Z,1.98
2023-03-29T05:46:47.293Z,2.40
2023-03-29T05:48:24.511Z,2.17
2023-03-29T05:49:58.115Z,2.13
2023-03-29T05:51:33.349Z,2.60
2023-03-29T05:53:06.678Z,2.75
2023-03-29T05:54:40.020Z,1.10
2023-03-29T05:56:16.402Z,1.65
2023-03-29T05:57:50.262Z,1.52
2023-03-29T05:59:28.797Z,2.30
2023-03-29T06:01:05.735Z,1.85
2023-03-29T06:03:17.710Z,1.80
2023-03-29T06:04:55.564Z,1.15
2023-03-29T06:06:28.978Z,2.30
2023-03-29T06:08:02.554Z,2.15
2023-03-29T06:09:59.076Z,1.63
2023-03-29T06:11:33.257Z,2.58
2023-03-29T06:13:23.532Z,2.50
2023-03-29T06:14:58.532Z,0.52
2023-03-29T06:16:43.652Z,0.63
2023-03-29T06:18:17.890Z,1.38
2023-03-29T06:19:53.312Z,0.30
2023-03-29T06:21:30.463Z,1.05
2023-03-29T06:23:04.972Z,2.63
2023-03-29T06:24:38.125Z,1.95
2023-03-29T06:26:17.996Z,1.08
2023-03-29T06:27:52.305Z,1.35
2023-03-29T06:29:26.828Z,2.97
2023-03-29T06:31:03.081Z,1.25
2023-03-29T06:32:43.290Z,1.88
2023-03-29T06:34:43.296Z,1.52
2023-03-29T06:36:45.949Z,2.45
2023-03-29T06:38:20.973Z,1.02
2023-03-29T06:40:14.474Z,1.60
2023-03-29T06:41:49.953Z,0.40
2023-03-29T06:43:46.112Z,2.55
2023-03-29T06:45:24.646Z,1.35
2023-03-29T06:47:00.151Z,2.83
2023-03-29T06:48:35.173Z,7.63
2023-03-29T06:50:09.476Z,0.70
2023-03-29T06:51:50.713Z,0.98
2023-03-29T06:53:24.506Z,3.25
2023-03-29T06:55:03.089Z,2.47
2023-03-29T06:56:36.354Z,1.25
2023-03-29T06:58:14.093Z,2.08
2023-03-29T06:59:47.800Z,0.95
2023-03-29T07:01:25.274Z,1.15
2023-03-29T07:03:10.664Z,2.33
2023-03-29T07:04:46.663Z,1.00
2023-03-29T07:06:33.786Z,1.40
2023-03-29T07:08:14.143Z,0.57
2023-03-29T07:09:58.255Z,1.23
2023-03-29T07:12:10.837Z,1.17
2023-03-29T07:13:44.976Z,1.10
2023-03-29T07:15:25.819Z,0.95
2023-03-29T07:17:34.390Z,0.85
2023-03-29T07:19:09.220Z,1.17
2023-03-29T07:20:59.248Z,0.73
2023-03-29T07:22:32.739Z,0.68
2023-03-29T07:24:10.284Z,1.48
2023-03-29T07:25:44.771Z,1.15
2023-03-29T07:27:18.845Z,1.90
2023-03-29T07:28:55.205Z,2.08
2023-03-29T07:30:31.866Z,1.95
2023-03-29T07:32:19.006Z,2.30
2023-03-29T07:33:53.726Z,5.13
2023-03-29T07:35:27.969Z,1.70
2023-03-29T07:37:03.209Z,0.75
2023-03-29T07:38:38.078Z,1.05
2023-03-29T07:40:23.819Z,1.52
2023-03-29T07:42:03.593Z,1.40
2023-03-29T07:43:37.065Z,1.92
2023-03-29T07:45:11.411Z,0.43
2023-03-29T07:47:00.543Z,1.52
2023-03-29T07:48:34.240Z,1.75
2023-03-29T07:50:12.350Z,0.85
2023-03-29T07:51:45.769Z,0.98
2023-03-29T07:53:23.252Z,3.13
2023-03-29T07:54:58.997Z,2.33
2023-03-29T07:56:51.099Z,1.83
2023-03-29T07:58:45.096Z,0.88
2023-03-29T08:00:20.418Z,2.38
2023-03-29T08:02:11.913Z,0.77
2023-03-29T08:03:48.314Z,0.88
2023-03-29T08:05:37.514Z,1.08
2023-03-29T08:07:19.356Z,1.77
2023-03-29T08:09:14.402Z,1.23
2023-03-29T08:10:50.199Z,1.15
2023-03-29T08:12:53.669Z,2.20
2023-03-29T08:14:34.376Z,1.75
2023-03-29T08:16:22.192Z,2.05
2023-03-29T08:18:02.556Z,1.63
2023-03-29T08:19:35.880Z,3.17
2023-03-29T08:21:11.782Z,2.30
2023-03-29T08:22:45.464Z,1.80
2023-03-29T08:24:39.075Z,1.35
2023-03-29T08:26:15.958Z,1.98
2023-03-29T08:27:50.060Z,0.57
2023-03-29T08:29:33.332Z,0.90
2023-03-29T08:31:08.667Z,1.80
2023-03-29T08:32:43.697Z,0.52
2023-03-29T08:34:17.238Z,1.50
2023-03-29T08:35:51.214Z,1.20
2023-03-29T08:37:32.821Z,0.82
2023-03-29T08:39:06.985Z,0.75
2023-03-29T08:40:41.980Z,2.70
2023-03-29T08:42:29.807Z,2.08
2023-03-29T08:44:15.526Z,1.13
2023-03-29T08:46:11.904Z,1.55
2023-03-29T08:47:56.973Z,0.95
2023-03-29T08:49:32.296Z,1.45
2023-03-29T08:51:16.298Z,1.83
2023-03-29T08:52:56.108Z,1.08
2023-03-29T08:55:05.874Z,1.10
2023-03-29T08:57:06.683Z,2.05
2023-03-29T08:58:46.851Z,1.42
2023-03-29T09:00:25.797Z,1.85
2023-03-29T09:02:01.445Z,2.58
2023-03-29T09:03:40.026Z,1.88
2023-03-29T09:05:27.039Z,2.70
2023-03-29T09:07:10.234Z,2.08
2023-03-29T09:08:49.826Z,4.40
2023-03-29T09:10:36.795Z,2.60
2023-03-29T09:12:22.688Z,2.20
2023-03-29T09:14:10.265Z,1.23
2023-03-29T09:15:52.602Z,2.20
2023-03-29T09:17:52.208Z,1.98
2023-03-29T09:19:35.896Z,2.90
2023-03-29T09:21:18.317Z,2.05
2023-03-29T09:23:01.893Z,1.35
2023-03-29T09:24:54.709Z,1.25
2023-03-29T09:26:39.173Z,1.75
2023-03-29T09:28:39.040Z,1.10
2023-03-29T09:30:25.959Z,1.05
2023-03-29T09:32:21.046Z,1.80
2023-03-29T09:33:59.877Z,3.15
2023-03-29T09:35:54.934Z,2.60
2023-03-29T09:37:33.894Z,1.48
2023-03-29T09:39:08.578Z,2.03
2023-03-29T09:40:48.723Z,2.58
2023-03-29T09:42:29.577Z,3.28
2023-03-29T09:44:12.755Z,1.05
2023-03-29T09:45:59.261Z,1.90
2023-03-29T09:47:37.449Z,1.95
2023-03-29T09:49:21.832Z,1.70
2023-03-29T09:50:55.965Z,0.60
2023-03-29T09:52:29.733Z,1.45
2023-03-29T09:54:13.019Z,0.70
2023-03-29T09:56:07.150Z,1.70
2023-03-29T09:57:47.857Z,2.45
2023-03-29T09:59:23.044Z,2.22
2023-03-29T10:00:59.983Z,1.10
2023-03-29T10:02:34.291Z,1.00
2023-03-29T10:04:09.254Z,2.63
2023-03-29T10:05:47.622Z,1.02
2023-03-29T10:07:24.274Z,2.15
2023-03-29T10:09:06.335Z,2.85
2023-03-29T10:10:45.659Z,1.92
2023-03-29T10:12:19.061Z,1.23
2023-03-29T10:13:57.470Z,2.35
2023-03-29T10:15:33.266Z,0.82
2023-03-29T10:17:13.056Z,1.90
2023-03-29T10:18:47.537Z,1.00
2023-03-29T10:20:21.195Z,2.50
2023-03-29T10:21:56.257Z,1.98
2023-03-29T10:23:33.711Z,2.03
2023-03-29T10:25:14.767Z,0.68
2023-03-29T10:26:49.435Z,1.80
2023-03-29T10:28:24.901Z,2.92
2023-03-29T10:30:00.911Z,1.20
2023-03-29T10:31:38.253Z,1.42
2023-03-29T10:33:18.906Z,1.60
2023-03-29T10:34:54.363Z,0.68
2023-03-29T10:36:28.599Z,1.67
2023-03-29T10:38:06.608Z,1.45
2023-03-29T10:39:41.614Z,1.33
2023-03-29T10:41:23.653Z,0.80
2023-03-29T10:43:00.712Z,0.98
2023-03-29T10:44:37.011Z,0.93
2023-03-29T10:46:13.379Z,1.13
2023-03-29T10:47:49.937Z,1.88
2023-03-29T10:49:25.628Z,1.52
2023-03-29T10:51:00.132Z,2.83
2023-03-29T10:52:34.641Z,1.30
2023-03-29T10:54:13.009Z,1.60
2023-03-29T10:55:53.271Z,1.17
2023-03-29T10:57:34.913Z,2.10
2023-03-29T10:59:27.827Z,1.38
2023-03-29T11:01:02.037Z,1.60
2023-03-29T11:03:00.485Z,1.58
2023-03-29T11:04:42.640Z,2.45
2023-03-29T11:06:25.618Z,1.90
2023-03-29T11:08:12.622Z,2.58
2023-03-29T11:09:54.626Z,2.95
2023-03-29T11:11:44.218Z,0.80
2023-03-29T11:13:27.297Z,1.08
2023-03-29T11:15:15.071Z,1.92
2023-03-29T11:16:58.765Z,2.00
2023-03-29T11:18:49.714Z,1.02
2023-03-29T11:20:30.242Z,1.10
2023-03-29T11:22:08.794Z,1.40
2023-03-29T11:23:49.882Z,1.30
2023-03-29T11:25:45.302Z,1.58
2023-03-29T11:27:29.942Z,1.20
2023-03-29T11:29:10.412Z,5.00
2023-03-29T11:30:49.770Z,1.08
2023-03-29T11:32:30.668Z,4.80
2023-03-29T11:34:20.548Z,4.13
2023-03-29T11:35:58.261Z,2.95
2023-03-29T11:37:36.877Z,2.53
2023-03-29T11:39:23.789Z,3.13
2023-03-29T11:41:03.487Z,2.22
2023-03-29T11:42:44.203Z,3.35
2023-03-29T11:44:21.560Z,2.15
2023-03-29T11:45:58.122Z,2.83
2023-03-29T11:47:38.312Z,2.58
2023-03-29T11:49:19.572Z,1.98
2023-03-29T11:50:57.845Z,2.47
2023-03-29T11:52:37.869Z,1.25
2023-03-29T11:54:18.858Z,1.63
2023-03-29T11:55:53.895Z,2.67
2023-03-29T11:57:32.201Z,1.65
2023-03-29T11:59:13.960Z,1.33
2023-03-29T12:00:50.050Z,2.13
2023-03-29T12:02:29.713Z,3.15
2023-03-29T12:04:08.661Z,2.70
2023-03-29T12:05:46.931Z,1.88
2023-03-29T12:07:26.951Z,2.22
2023-03-29T12:09:05.446Z,1.10
2023-03-29T12:10:43.170Z,1.90
2023-03-29T12:12:23.394Z,2.25
2023-03-29T12:14:02.470Z,1.42
2023-03-29T12:15:42.441Z,2.90
2023-03-29T12:17:20.656Z,1.70
2023-03-29T12:18:56.900Z,1.08
2023-03-29T12:20:34.053Z,0.90
2023-03-29T12:22:11.324Z,1.67
2023-03-29T12:23:50.420Z,3.22
2023-03-29T12:25:29.495Z,1.60
2023-03-29T12:27:20.837Z,1.45
2023-03-29T12:29:16.433Z,1.15
2023-03-29T12:30:59.414Z,1.35
2023-03-29T12:32:46.785Z,1.20
2023-03-29T12:35:04.182Z,0.82
2023-03-29T12:37:27.565Z,1.50
2023-03-29T12:39:23.328Z,1.15
2023-03-29T12:41:19.246Z,1.13
2023-03-29T12:43:20.519Z,1.58
2023-03-29T12:45:19.531Z,0.50
2023-03-29T12:46:54.970Z,1.48
2023-03-29T12:48:31.982Z,6.05
2023-03-29T12:50:05.477Z,0.98
2023-03-29T12:51:43.575Z,2.28
2023-03-29T12:53:23.402Z,1.83
2023-03-29T12:54:58.346Z,1.88
2023-03-29T12:56:41.468Z,1.98
2023-03-29T12:58:27.930Z,2.65
2023-03-29T13:00:12.425Z,2.08
2023-03-29T13:01:59.514Z,1.35
2023-03-29T13:03:44.289Z,0.73
2023-03-29T13:05:38.596Z,0.75
2023-03-29T13:07:16.700Z,1.50
2023-03-29T13:09:00.479Z,1.80
2023-03-29T13:10:40.809Z,2.83
2023-03-29T13:12:23.992Z,1.75
2023-03-29T13:13:57.963Z,2.03
2023-03-29T13:15:35.382Z,2.58
2023-03-29T13:17:18.515Z,3.35
2023-03-29T13:19:07.212Z,2.30
2023-03-29T13:20:48.123Z,2.00
2023-03-29T13:22:34.554Z,1.50
2023-03-29T13:24:25.018Z,2.03
2023-03-29T13:26:27.404Z,2.08
2023-03-29T13:28:09.434Z,1.70
2023-03-29T13:29:56.333Z,1.00
2023-03-29T13:31:37.335Z,1.70
2023-03-29T13:33:21.525Z,2.42
2023-03-29T13:35:01.109Z,1.05
2023-03-29T13:36:50.724Z,2.55
2023-03-29T13:38:31.421Z,3.47
2023-03-29T13:40:29.553Z,3.90
2023-03-29T13:42:20.707Z,4.32
2023-03-29T13:43:55.518Z,4.53
2023-03-29T13:45:30.199Z,2.85
2023-03-29T13:47:06.692Z,2.20
2023-03-29T13:48:54.892Z,2.53
2023-03-29T13:50:36.717Z,1.08
2023-03-29T13:52:16.684Z,3.20
2023-03-29T13:53:54.295Z,3.42
2023-03-29T13:55:33.314Z,2.20
2023-03-29T13:57:14.758Z,1.60
2023-03-29T13:58:52.763Z,1.58
2023-03-29T14:00:30.635Z,1.13
2023-03-29T14:02:06.765Z,2.95
2023-03-29T14:03:45.959Z,4.68
2023-03-29T14:05:27.789Z,1.35
2023-03-29T14:07:02.461Z,3.20
2023-03-29T14:08:41.643Z,2.70
2023-03-29T14:10:18.034Z,1.85
2023-03-29T14:11:52.890Z,6.93
2023-03-29T14:13:27.231Z,6.28
2023-03-29T14:15:03.847Z,6.03
2023-03-29T14:16:40.116Z,2.95
2023-03-29T14:18:16.487Z,1.92
2023-03-29T14:19:50.770Z,1.95
2023-03-29T14:21:24.179Z,5.25
2023-03-29T14:22:57.565Z,1.70
2023-03-29T14:24:39.495Z,1.80
2023-03-29T14:26:18.687Z,0.80
2023-03-29T14:27:53.244Z,4.15
2023-03-29T14:29:32.106Z,2.95
2023-03-29T14:31:07.926Z,2.17
2023-03-29T14:32:41.429Z,2.45
2023-03-29T14:34:17.454Z,1.48
2023-03-29T14:35:51.988Z,2.53
2023-03-29T14:37:28.191Z,2.15
2023-03-29T14:39:05.971Z,1.50
2023-03-29T14:40:39.462Z,2.20
2023-03-29T14:42:20.871Z,1.73
2023-03-29T14:43:55.874Z,2.10
2023-03-29T14:45:29.171Z,1.02
2023-03-29T14:47:03.834Z,2.50
2023-03-29T14:48:38.830Z,1.88
2023-03-29T14:50:19.888Z,1.27
2023-03-29T14:51:54.862Z,1.90
2023-03-29T14:53:30.814Z,9.25
2023-03-29T14:55:05.241Z,4.70
2023-03-29T14:56:38.678Z,5.03
2023-03-29T14:58:18.671Z,5.18
2023-03-29T14:59:56.489Z,6.22
2023-03-29T15:01:29.873Z,6.30
2023-03-29T15:03:03.898Z,4.03
2023-03-29T15:04:37.624Z,3.08
2023-03-29T15:06:12.962Z,2.28
2023-03-29T15:07:46.823Z,1.38
2023-03-29T15:09:25.555Z,2.60
2023-03-29T15:10:59.515Z,5.80
2023-03-29T15:12:33.810Z,2.25
2023-03-29T15:14:09.817Z,2.00
2023-03-29T15:15:44.974Z,7.82
2023-03-29T15:17:43.055Z,1.70
2023-03-29T15:19:29.335Z,1.52
2023-03-29T15:21:03.385Z,1.33
2023-03-29T15:22:39.248Z,1.40
2023-03-29T15:24:22.291Z,1.10
2023-03-29T15:25:58.782Z,1.08
2023-03-29T15:27:42.611Z,0.80
2023-03-29T15:29:23.535Z,1.23
2023-03-29T15:32:39.941Z,1.13
2023-03-29T15:34:16.107Z,1.92
2023-03-29T15:35:52.090Z,3.30
2023-03-29T15:37:26.026Z,1.98
2023-03-29T15:38:59.752Z,4.05
2023-03-29T15:40:33.294Z,1.80
2023-03-29T15:42:07.759Z,2.17
2023-03-29T15:43:41.656Z,2.42
2023-03-29T15:45:17.222Z,2.78
2023-03-29T15:46:52.146Z,2.47
2023-03-29T15:48:27.860Z,2.33
2023-03-29T15:50:01.749Z,4.43
2023-03-29T15:51:35.025Z,3.95
2023-03-29T15:53:15.214Z,4.97
2023-03-29T15:54:49.309Z,2.63
2023-03-29T15:56:23.591Z,3.47
2023-03-29T15:57:59.565Z,2.08
2023-03-29T15:59:33.753Z,3.10
2023-03-29T16:01:19.174Z,2.53
2023-03-29T16:02:57.604Z,1.63
2023-03-29T16:04:30.882Z,1.90
2023-03-29T16:06:04.648Z,1.60
2023-03-29T16:07:37.995Z,1.92
2023-03-29T16:09:13.078Z,3.40
2023-03-29T16:10:47.236Z,2.35
2023-03-29T16:12:20.559Z,3.38
2023-03-29T16:13:53.854Z,2.45
2023-03-29T16:15:29.195Z,2.35
2023-03-29T16:17:03.269Z,4.43
2023-03-29T16:18:38.793Z,4.10
2023-03-29T16:20:15.001Z,5.57
2023-03-29T16:21:49.716Z,5.72
2023-03-29T16:23:23.126Z,4.15
2023-03-29T16:24:56.591Z,4.43
2023-03-29T16:26:30.426Z,3.65
2023-03-29T16:28:05.066Z,4.45
2023-03-29T16:29:38.189Z,2.63
2023-03-29T16:31:12.717Z,2.75
2023-03-29T16:32:46.231Z,4.82
2023-03-29T16:34:23.076Z,8.38
2023-03-29T16:36:01.318Z,7.28
2023-03-29T16:37:35.113Z,6.25
2023-03-29T16:39:08.523Z,6.22
2023-03-29T16:40:43.149Z,2.72
2023-03-29T16:42:16.571Z,3.42
2023-03-29T16:43:50.075Z,2.83
2023-03-29T16:45:23.761Z,3.08
2023-03-29T16:46:58.496Z,2.45
2023-03-29T16:48:32.062Z,4.05
2023-03-29T16:50:08.321Z,4.15
2023-03-29T16:51:41.596Z,2.60
2023-03-29T16:53:15.395Z,9.02
2023-03-29T16:54:48.774Z,9.10
2023-03-29T16:56:22.840Z,9.60
2023-03-29T16:57:59.235Z,7.00
2023-03-29T16:59:34.207Z,8.25
2023-03-29T17:01:11.866Z,9.05
2023-03-29T17:02:45.597Z,8.23
2023-03-29T17:04:18.836Z,13.02
2023-03-29T17:05:55.178Z,9.32
2023-03-29T17:07:29.587Z,10.02
2023-03-29T17:09:03.362Z,16.17
2023-03-29T17:10:37.057Z,7.80
2023-03-29T17:12:10.558Z,7.25
2023-03-29T17:13:43.866Z,9.10
2023-03-29T17:15:17.612Z,33.65
2023-03-29T17:16:51.054Z,8.02
2023-03-29T17:18:26.598Z,9.32
2023-03-29T17:19:59.944Z,6.10
2023-03-29T17:21:34.520Z,7.90
2023-03-29T17:23:08.996Z,11.02
2023-03-29T17:24:43.145Z,6.95
2023-03-29T17:26:16.466Z,7.65
2023-03-29T17:27:50.769Z,7.20
2023-03-29T17:29:24.228Z,12.27
2023-03-29T17:30:58.376Z,11.93
2023-03-29T17:32:31.808Z,12.15
2023-03-29T17:34:05.086Z,9.00
2023-03-29T17:35:38.228Z,9.95
2023-03-29T17:37:13.335Z,14.77
2023-03-29T17:38:48.930Z,16.10
2023-03-29T17:40:22.594Z,14.68
2023-03-29T17:41:55.875Z,12.77
2023-03-29T17:43:30.197Z,13.20
2023-03-29T17:45:03.938Z,13.75
2023-03-29T17:46:37.924Z,12.48
2023-03-29T17:48:11.483Z,11.88
2023-03-29T17:49:45.422Z,13.68
2023-03-29T17:51:19.671Z,13.20
2023-03-29T17:52:54.413Z,19.17
2023-03-29T17:54:27.603Z,39.72
2023-03-29T17:56:01.364Z,32.40
2023-03-29T17:57:34.832Z,41.60
2023-03-29T17:59:08.302Z,39.65
2023-03-29T18:00:41.513Z,36.95
2023-03-29T18:02:18.060Z,34.92
2023-03-29T18:03:51.285Z,36.63
2023-03-29T18:05:24.728Z,24.90
2023-03-29T18:06:57.979Z,19.90
2023-03-29T18:08:33.398Z,20.67
2023-03-29T18:10:07.846Z,22.27
2023-03-29T18:11:41.423Z,27.17
2023-03-29T18:13:17.594Z,35.13
2023-03-29T18:14:51.248Z,29.63
2023-03-29T18:16:24.690Z,33.72
2023-03-29T18:17:57.956Z,23.85
2023-03-29T18:19:31.407Z,28.33
2023-03-29T18:21:07.142Z,26.80
2023-03-29T18:22:41.393Z,23.70
2023-03-29T18:24:16.717Z,26.13
2023-03-29T18:25:49.925Z,24.25
2023-03-29T18:27:23.596Z,22.92
2023-03-29T18:28:57.002Z,21.77
2023-03-29T18:30:30.318Z,20.90
2023-03-29T18:32:03.645Z,23.30
2023-03-29T18:33:37.954Z,24.60
2023-03-29T18:35:11.759Z,26.42
2023-03-29T18:36:45.045Z,31.10
2023-03-29T18:38:18.736Z,38.72
2023-03-29T18:39:53.931Z,41.17
2023-03-29T18:41:27.164Z,43.58
2023-03-29T18:43:00.599Z,41.38
2023-03-29T18:44:33.823Z,44.95
2023-03-29T18:46:07.925Z,39.92
2023-03-29T18:47:41.235Z,27.52
2023-03-29T18:49:14.414Z,22.98
2023-03-29T18:50:48.096Z,22.55
2023-03-29T18:52:21.628Z,22.92
2023-03-29T18:53:55.647Z,19.65
2023-03-29T18:55:31.224Z,19.52
2023-03-29T18:57:04.615Z,17.63
2023-03-29T18:58:38.129Z,16.58
2023-03-29T19:00:13.025Z,13.63
2023-03-29T19:01:46.502Z,14.73
2023-03-29T19:03:19.721Z,23.10
2023-03-29T19:04:53.133Z,19.80
2023-03-29T19:06:26.521Z,19.73
2023-03-29T19:07:59.797Z,17.65
2023-03-29T19:09:33.136Z,12.57
2023-03-29T19:11:11.493Z,9.02
2023-03-29T19:12:44.742Z,9.73
2023-03-29T19:14:23.550Z,10.18
2023-03-29T19:15:56.834Z,9.48
2023-03-29T19:17:31.323Z,9.32
2023-03-29T19:19:05.853Z,8.07
2023-03-29T19:20:39.913Z,7.65
2023-03-29T19:22:13.022Z,7.97
2023-03-29T19:23:46.878Z,7.80
2023-03-29T19:25:20.414Z,22.58
2023-03-29T19:26:56.577Z,12.13
2023-03-29T19:28:30.128Z,11.80
2023-03-29T19:30:03.861Z,18.45
2023-03-29T19:31:37.972Z,8.45
2023-03-29T19:33:11.349Z,6.68
2023-03-29T19:34:44.574Z,12.43
2023-03-29T19:36:18.074Z,10.35
2023-03-29T19:37:51.240Z,22.92
2023-03-29T19:39:26.807Z,18.35
2023-03-29T19:41:00.090Z,16.13
2023-03-29T19:42:36.289Z,17.98
2023-03-29T19:44:09.663Z,18.30
2023-03-29T19:45:43.075Z,17.58
2023-03-29T19:47:16.515Z,14.60
2023-03-29T19:48:51.857Z,11.63
2023-03-29T19:50:26.364Z,15.05
2023-03-29T19:51:59.666Z,14.02
2023-03-29T19:53:33.692Z,15.32
2023-03-29T19:55:08.339Z,28.17
2023-03-29T19:56:42.690Z,30.40
2023-03-29T19:58:17.545Z,30.30
2023-03-29T19:59:50.916Z,24.83
2023-03-29T20:01:27.321Z,23.08
2023-03-29T20:03:01.162Z,21.08
2023-03-29T20:04:34.687Z,13.45
2023-03-29T20:06:08.388Z,11.38
2023-03-29T20:07:41.994Z,9.38
2023-03-29T20:09:16.378Z,15.20
2023-03-29T20:10:49.714Z,11.05
2023-03-29T20:12:22.858Z,10.57
2023-03-29T20:13:57.584Z,13.13
2023-03-29T20:15:30.699Z,9.48
2023-03-29T20:17:04.593Z,14.07
2023-03-29T20:18:38.724Z,11.13
2023-03-29T20:20:14.220Z,24.30
2023-03-29T20:21:50.713Z,36.47
2023-03-29T20:23:23.969Z,34.50
2023-03-29T20:24:57.426Z,30.95
2023-03-29T20:26:31.532Z,26.08
2023-03-29T20:28:04.806Z,36.45
2023-03-29T20:29:39.416Z,33.97
2023-03-29T20:31:12.742Z,34.97
2023-03-29T20:32:47.334Z,38.65
2023-03-29T20:34:20.516Z,34.75
2023-03-29T20:35:53.856Z,38.95
2023-03-29T20:37:27.264Z,39.97
2023-03-29T20:39:01.448Z,38.80
2023-03-29T20:40:37.291Z,25.42
2023-03-29T20:42:11.276Z,31.73
2023-03-29T20:43:46.228Z,25.08
2023-03-29T20:45:20.985Z,21.35
2023-03-29T20:47:03.910Z,14.52
2023-03-29T20:48:38.362Z,15.30
2023-03-29T20:50:12.293Z,22.67
2023-03-29T20:51:46.066Z,25.00
2023-03-29T20:53:20.537Z,29.70
2023-03-29T20:54:54.559Z,34.20
2023-03-29T20:56:27.882Z,30.10
2023-03-29T20:58:02.290Z,32.35
2023-03-29T20:59:35.641Z,27.98
2023-03-29T21:01:12.418Z,18.90
2023-03-29T21:02:46.357Z,28.50
2023-03-29T21:04:20.420Z,29.58
2023-03-29T21:05:55.304Z,27.70
2023-03-29T21:07:28.703Z,28.63
2023-03-29T21:09:01.872Z,32.05
2023-03-29T21:10:36.888Z,34.22
2023-03-29T21:12:10.976Z,31.90
2023-03-29T21:13:45.106Z,32.10
2023-03-29T21:15:19.864Z,36.80
2023-03-29T21:16:54.769Z,41.05
2023-03-29T21:18:28.467Z,31.27
2023-03-29T21:20:07.991Z,18.42
2023-03-29T21:21:42.960Z,14.80
2023-03-29T21:23:16.577Z,15.95
2023-03-29T21:24:50.165Z,12.88
2023-03-29T21:26:23.683Z,6.22
2023-03-29T21:27:57.025Z,5.22
2023-03-29T21:29:30.471Z,5.60
2023-03-29T21:31:05.922Z,7.03
2023-03-29T21:32:41.142Z,9.27
2023-03-29T21:34:15.161Z,11.63
2023-03-29T21:35:48.409Z,12.18
2023-03-29T21:37:21.674Z,10.88
2023-03-29T21:38:53.858Z,6.93
2023-03-29T21:40:26.996Z,7.68
2023-03-29T21:42:00.652Z,9.88
2023-03-29T21:43:33.828Z,9.07
2023-03-29T21:45:08.090Z,7.03
2023-03-29T21:46:41.309Z,7.10
2023-03-29T21:48:16.320Z,8.40
2023-03-29T21:49:49.824Z,10.77
2023-03-29T21:51:22.957Z,12.18
2023-03-29T21:52:56.073Z,6.00
2023-03-29T21:54:29.594Z,6.53
2023-03-29T21:56:03.051Z,5.25
2023-03-29T21:57:36.651Z,6.47
2023-03-29T21:59:09.888Z,7.97
2023-03-29T22:00:43.235Z,8.82
2023-03-29T22:02:17.106Z,9.25
2023-03-29T22:03:51.877Z,8.27
2023-03-29T22:05:26.133Z,8.80
2023-03-29T22:06:59.497Z,8.00
2023-03-29T22:08:33.083Z,6.10
2023-03-29T22:10:07.078Z,7.78
2023-03-29T22:11:40.206Z,6.80
2023-03-29T22:13:13.548Z,5.53
2023-03-29T22:14:46.965Z,6.38
2023-03-29T22:16:20.243Z,5.00
2023-03-29T22:17:53.611Z,5.65
2023-03-29T22:19:28.629Z,7.68
2023-03-29T22:21:02.109Z,8.65
2023-03-29T22:22:35.430Z,7.03
2023-03-29T22:24:08.678Z,7.95
2023-03-29T22:25:42.178Z,5.85
2023-03-29T22:27:15.550Z,8.60
2023-03-29T22:28:49.019Z,7.15
2023-03-29T22:30:22.862Z,7.97
2023-03-29T22:31:56.695Z,9.07
2023-03-29T22:33:31.482Z,8.35
2023-03-29T22:35:07.029Z,7.05
2023-03-29T22:36:40.311Z,6.07
2023-03-29T22:38:12.945Z,7.20
2023-03-29T22:39:46.480Z,6.85
2023-03-29T22:41:21.666Z,5.95
2023-03-29T22:42:54.796Z,6.00
2023-03-29T22:44:28.368Z,8.55
2023-03-29T22:46:01.748Z,7.50
2023-03-29T22:47:35.508Z,7.30
2023-03-29T22:49:08.675Z,7.13
2023-03-29T22:50:43.623Z,5.18
2023-03-29T22:52:16.991Z,4.30
2023-03-29T22:53:50.752Z,5.32
2023-03-29T22:55:23.897Z,4.95
2023-03-29T22:56:59.999Z,7.53
2023-03-29T22:58:33.328Z,7.15
2023-03-29T23:00:09.267Z,7.97
2023-03-29T23:01:42.842Z,7.30
2023-03-29T23:03:15.728Z,7.07
2023-03-29T23:04:49.308Z,4.80
2023-03-29T23:06:23.995Z,5.00
2023-03-29T23:07:56.218Z,5.30
2023-03-29T23:09:29.996Z,6.50
2023-03-29T23:11:03.784Z,7.60
2023-03-29T23:12:38.452Z,8.32